createdAt,value
2022-11-28T00:01:23.980Z,8.52
2022-11-28T00:03:51.915Z,8.54
2022-11-28T00:06:19.751Z,8.57
2022-11-28T00:08:47.416Z,8.61
2022-11-28T00:11:15.352Z,8.62
2022-11-28T00:13:43.094Z,8.66
2022-11-28T00:16:10.814Z,8.70
2022-11-28T00:18:38.471Z,8.72
2022-11-28T00:21:06.079Z,8.76
2022-11-28T00:23:34.567Z,8.78
2022-11-28T00:26:02.423Z,8.79
2022-11-28T00:28:30.044Z,8.81
2022-11-28T00:30:57.626Z,8.78
2022-11-28T00:33:25.224Z,8.77
2022-11-28T00:35:54.500Z,8.76
2022-11-28T00:38:22.092Z,8.74
2022-11-28T00:40:49.655Z,8.72
2022-11-28T00:43:17.263Z,8.64
2022-11-28T00:45:44.885Z,8.47
2022-11-28T00:48:13.484Z,8.28
2022-11-28T00:50:41.068Z,8.11
2022-11-28T00:53:08.618Z,7.97
2022-11-28T00:55:36.164Z,7.87
2022-11-28T00:58:04.170Z,7.79
2022-11-28T01:00:32.234Z,7.73
2022-11-28T01:02:59.802Z,7.68
2022-11-28T01:05:27.424Z,7.62
2022-11-28T01:07:55.339Z,7.59
2022-11-28T01:10:22.988Z,7.55
2022-11-28T01:12:52.444Z,7.50
2022-11-28T01:15:20.014Z,7.45
2022-11-28T01:17:47.579Z,7.42
2022-11-28T01:20:15.211Z,7.39
2022-11-28T01:22:42.789Z,7.36
2022-11-28T01:25:11.570Z,7.34
2022-11-28T01:27:39.152Z,7.30
2022-11-28T01:30:07.042Z,7.27
2022-11-28T01:32:34.660Z,7.24
2022-11-28T01:35:02.283Z,7.20
2022-11-28T01:37:31.640Z,7.19
2022-11-28T01:39:59.208Z,7.17
2022-11-28T01:42:26.900Z,7.15
2022-11-28T01:44:54.465Z,7.15
2022-11-28T01:47:22.005Z,7.15
2022-11-28T01:49:49.615Z,7.16
2022-11-28T01:52:17.467Z,7.19
2022-11-28T01:54:45.017Z,7.21
2022-11-28T01:57:12.632Z,7.25
2022-11-28T01:59:40.199Z,7.29
2022-11-28T02:02:08.162Z,7.32
2022-11-28T02:04:35.771Z,7.34
2022-11-28T02:07:03.364Z,7.38
2022-11-28T02:09:30.927Z,7.44
2022-11-28T02:11:58.502Z,7.48
2022-11-28T02:14:26.293Z,7.53
2022-11-28T02:16:53.869Z,7.59
2022-11-28T02:19:21.485Z,7.62
2022-11-28T02:21:49.061Z,7.62
2022-11-28T02:24:16.639Z,7.64
2022-11-28T02:26:45.193Z,7.67
2022-11-28T02:29:12.759Z,7.72
2022-11-28T02:31:40.371Z,7.75
2022-11-28T02:34:08.338Z,7.78
2022-11-28T02:36:35.900Z,7.81
2022-11-28T02:39:04.163Z,7.83
2022-11-28T02:41:31.805Z,7.83
2022-11-28T02:44:03.751Z,7.82
2022-11-28T02:46:31.943Z,7.82
2022-11-28T02:48:59.669Z,7.82
2022-11-28T02:51:28.541Z,7.82
2022-11-28T02:53:56.097Z,7.82
2022-11-28T02:56:24.008Z,7.82
2022-11-28T02:58:51.926Z,7.81
2022-11-28T03:01:19.615Z,7.80
2022-11-28T03:03:47.721Z,7.80
2022-11-28T03:06:16.057Z,7.79
2022-11-28T03:08:43.623Z,7.80
2022-11-28T03:11:11.223Z,7.79
2022-11-28T03:13:38.774Z,7.82
2022-11-28T03:16:06.795Z,7.81
2022-11-28T03:18:34.454Z,7.84
2022-11-28T03:21:02.037Z,7.86
2022-11-28T03:23:29.625Z,7.86
2022-11-28T03:25:57.345Z,7.88
2022-11-28T03:28:25.250Z,7.90
2022-11-28T03:30:52.806Z,7.91
2022-11-28T03:33:21.426Z,7.93
2022-11-28T03:35:48.999Z,7.93
2022-11-28T03:38:16.587Z,7.94
2022-11-28T03:40:47.785Z,7.94
2022-11-28T03:43:15.433Z,7.95
2022-11-28T03:45:43.011Z,7.95
2022-11-28T03:48:10.707Z,7.96
2022-11-28T03:50:38.267Z,7.97
2022-11-28T03:53:06.216Z,7.99
2022-11-28T03:55:33.899Z,8.01
2022-11-28T03:58:01.576Z,8.02
2022-11-28T04:00:29.135Z,8.02
2022-11-28T04:02:57.198Z,8.04
2022-11-28T04:05:25.144Z,8.06
2022-11-28T04:07:52.774Z,8.08
2022-11-28T04:10:20.480Z,8.09
2022-11-28T04:12:48.075Z,8.12
2022-11-28T04:15:15.666Z,8.11
2022-11-28T04:17:43.615Z,8.11
2022-11-28T04:20:11.207Z,8.10
2022-11-28T04:22:38.800Z,8.12
2022-11-28T04:25:06.830Z,8.10
2022-11-28T04:27:34.412Z,8.12
2022-11-28T04:30:02.347Z,8.10
2022-11-28T04:32:29.956Z,8.13
2022-11-28T04:34:57.547Z,8.15
2022-11-28T04:37:25.154Z,8.17
2022-11-28T04:39:52.755Z,8.18
2022-11-28T04:42:21.895Z,8.20
2022-11-28T04:44:49.537Z,8.22
2022-11-28T04:47:17.303Z,8.23
2022-11-28T04:49:44.891Z,8.24
2022-11-28T04:52:12.481Z,8.24
2022-11-28T04:54:41.057Z,8.24
2022-11-28T04:57:08.995Z,8.26
2022-11-28T04:59:36.556Z,8.25
2022-11-28T05:02:04.228Z,8.23
2022-11-28T05:04:31.831Z,8.23
2022-11-28T05:07:00.205Z,8.22
2022-11-28T05:09:28.136Z,8.21
2022-11-28T05:11:55.706Z,8.20
2022-11-28T05:14:23.487Z,8.20
2022-11-28T05:16:51.159Z,8.23
2022-11-28T05:19:20.114Z,8.25
2022-11-28T05:21:47.748Z,8.27
2022-11-28T05:24:15.380Z,8.27
2022-11-28T05:26:43.422Z,8.25
2022-11-28T05:29:11.089Z,8.25
2022-11-28T05:31:42.320Z,8.28
2022-11-28T05:34:09.968Z,8.28
2022-11-28T05:36:37.556Z,8.28
2022-11-28T05:39:05.237Z,8.30
2022-11-28T05:41:32.847Z,8.32
2022-11-28T05:44:00.768Z,8.33
2022-11-28T05:46:28.398Z,8.33
2022-11-28T05:48:55.976Z,8.34
2022-11-28T05:51:23.576Z,8.32
2022-11-28T05:53:51.485Z,8.34
2022-11-28T05:56:19.401Z,8.36
2022-11-28T05:58:47.035Z,8.36
2022-11-28T06:01:14.687Z,8.36
2022-11-28T06:03:42.324Z,8.38
2022-11-28T06:06:09.910Z,8.39
2022-11-28T06:08:38.919Z,8.39
2022-11-28T06:11:06.696Z,8.39
2022-11-28T06:13:34.305Z,8.39
2022-11-28T06:16:02.077Z,8.37
2022-11-28T06:18:29.748Z,8.37
2022-11-28T06:20:58.320Z,8.35
2022-11-28T06:23:26.007Z,8.34
2022-11-28T06:25:53.631Z,8.31
2022-11-28T06:28:21.250Z,8.29
2022-11-28T06:30:48.939Z,8.25
2022-11-28T06:33:17.099Z,8.24
2022-11-28T06:35:45.007Z,8.20
2022-11-28T06:38:14.368Z,8.19
2022-11-28T06:40:42.247Z,8.20
2022-11-28T06:43:09.842Z,8.22
2022-11-28T06:45:38.970Z,8.23
2022-11-28T06:48:06.594Z,8.25
2022-11-28T06:50:34.226Z,8.22
2022-11-28T06:53:01.993Z,8.19
2022-11-28T06:55:29.622Z,8.15
2022-11-28T06:58:00.739Z,8.16
2022-11-28T07:00:28.533Z,8.17
2022-11-28T07:02:58.367Z,8.17
2022-11-28T07:05:27.870Z,8.17
2022-11-28T07:07:55.701Z,8.19
2022-11-28T07:10:25.163Z,8.22
2022-11-28T07:12:53.163Z,8.25
2022-11-28T07:15:20.867Z,8.26
2022-11-28T07:17:48.523Z,8.26
2022-11-28T07:20:16.435Z,8.27
2022-11-28T07:22:47.546Z,8.26
2022-11-28T07:25:16.193Z,8.28
2022-11-28T07:27:43.829Z,8.27
2022-11-28T07:30:11.589Z,8.28
2022-11-28T07:32:39.261Z,8.31
2022-11-28T07:35:09.122Z,8.31
2022-11-28T07:37:36.874Z,8.32
2022-11-28T07:40:04.556Z,8.33
2022-11-28T07:42:32.496Z,8.34
2022-11-28T07:45:00.224Z,8.36
2022-11-28T07:47:30.012Z,8.38
2022-11-28T07:49:57.654Z,8.39
2022-11-28T07:52:25.353Z,8.40
2022-11-28T07:54:53.021Z,8.40
2022-11-28T07:57:20.678Z,8.42
2022-11-28T07:59:48.781Z,8.42
2022-11-28T08:02:16.491Z,8.43
2022-11-28T08:04:50.401Z,8.43
2022-11-28T08:07:19.922Z,8.44
2022-11-28T08:09:47.851Z,8.43
2022-11-28T08:12:17.079Z,8.42
2022-11-28T08:14:45.237Z,8.37
2022-11-28T08:17:13.085Z,8.34
2022-11-28T08:19:40.773Z,8.30
2022-11-28T08:22:08.621Z,8.29
2022-11-28T08:24:36.665Z,8.29
2022-11-28T08:27:04.684Z,8.29
2022-11-28T08:29:32.577Z,8.30
2022-11-28T08:32:00.417Z,8.30
2022-11-28T08:34:28.125Z,8.30
2022-11-28T08:36:57.748Z,8.30
2022-11-28T08:39:25.694Z,8.31
2022-11-28T08:41:53.485Z,8.31
2022-11-28T08:44:21.334Z,8.30
2022-11-28T08:46:49.085Z,8.31
2022-11-28T08:49:17.283Z,8.30
2022-11-28T08:51:45.104Z,8.32
2022-11-28T08:54:12.819Z,8.33
2022-11-28T08:56:40.660Z,8.35
2022-11-28T08:59:08.604Z,8.36
2022-11-28T09:01:37.396Z,8.38
2022-11-28T09:04:05.229Z,8.38
2022-11-28T09:06:33.268Z,8.37
2022-11-28T09:09:02.196Z,8.32
2022-11-28T09:11:29.953Z,8.26
2022-11-28T09:13:58.184Z,8.22
2022-11-28T09:16:25.943Z,8.20
2022-11-28T09:18:53.977Z,8.18
2022-11-28T09:21:22.069Z,8.14
2022-11-28T09:23:49.825Z,8.13
2022-11-28T09:26:19.072Z,8.16
2022-11-28T09:28:46.875Z,8.18
2022-11-28T09:31:15.005Z,8.22
2022-11-28T09:33:42.952Z,8.28
2022-11-28T09:36:10.773Z,8.34
2022-11-28T09:38:40.451Z,8.38
2022-11-28T09:41:08.213Z,8.43
2022-11-28T09:43:36.437Z,8.49
2022-11-28T09:46:04.429Z,8.54
2022-11-28T09:48:32.222Z,8.59
2022-11-28T09:51:01.676Z,8.64
2022-11-28T09:53:29.838Z,8.67
2022-11-28T09:55:57.807Z,8.70
2022-11-28T09:58:25.710Z,8.73
2022-11-28T10:00:55.497Z,8.74
2022-11-28T10:03:25.936Z,8.71
2022-11-28T10:05:53.980Z,8.67
2022-11-28T10:08:21.782Z,8.67
2022-11-28T10:10:50.664Z,8.68
2022-11-28T10:13:18.631Z,8.72
2022-11-28T10:15:46.324Z,8.77
2022-11-28T10:18:14.188Z,8.82
2022-11-28T10:20:42.120Z,8.90
2022-11-28T10:23:10.128Z,8.97
2022-11-28T10:25:38.112Z,9.04
2022-11-28T10:28:06.738Z,9.09
2022-11-28T10:30:35.269Z,9.17
2022-11-28T10:33:03.113Z,9.22
2022-11-28T10:35:31.218Z,9.26
2022-11-28T10:37:59.138Z,9.31
2022-11-28T10:40:29.224Z,9.35
2022-11-28T10:42:57.251Z,9.38
2022-11-28T10:45:25.203Z,9.41
2022-11-28T10:47:53.138Z,9.42
2022-11-28T10:50:21.204Z,9.41
2022-11-28T10:52:50.090Z,9.39
2022-11-28T10:55:17.998Z,9.32
2022-11-28T10:57:46.197Z,9.24
2022-11-28T11:00:14.345Z,9.18
2022-11-28T11:02:42.343Z,9.14
2022-11-28T11:05:12.431Z,9.09
2022-11-28T11:07:40.332Z,9.07
2022-11-28T11:10:08.342Z,9.06
2022-11-28T11:12:36.323Z,9.04
2022-11-28T11:15:04.169Z,9.04
2022-11-28T11:17:36.196Z,9.03
2022-11-28T11:20:04.940Z,9.01
2022-11-28T11:22:33.109Z,9.01
2022-11-28T11:25:01.096Z,9.01
2022-11-28T11:27:29.154Z,9.03
2022-11-28T11:29:57.459Z,9.05
2022-11-28T11:32:25.438Z,9.04
2022-11-28T11:34:53.336Z,9.05
2022-11-28T11:37:21.158Z,9.05
2022-11-28T11:39:49.347Z,9.08
2022-11-28T11:42:20.327Z,9.10
2022-11-28T11:44:48.265Z,9.14
2022-11-28T11:47:16.213Z,9.16
2022-11-28T11:49:44.685Z,9.18
2022-11-28T11:52:13.084Z,9.18
2022-11-28T11:54:42.853Z,9.21
2022-11-28T11:57:31.929Z,9.22
2022-11-28T11:59:58.712Z,9.24
2022-11-28T12:02:27.317Z,9.27
2022-11-28T12:04:56.872Z,9.27
2022-11-28T12:07:24.863Z,9.24
2022-11-28T12:09:54.673Z,9.22
2022-11-28T12:12:22.773Z,9.19
2022-11-28T12:14:50.644Z,9.15
2022-11-28T12:17:47.255Z,9.10
2022-11-28T12:20:09.183Z,9.04
2022-11-28T12:22:37.605Z,9.00
2022-11-28T12:25:05.683Z,8.99
2022-11-28T12:27:35.364Z,8.97
2022-11-28T12:30:03.445Z,8.97
2022-11-28T12:32:31.361Z,8.98
2022-11-28T12:34:59.284Z,9.00
2022-11-28T12:37:42.035Z,9.04
2022-11-28T12:40:10.380Z,9.03
2022-11-28T12:42:38.832Z,9.03
2022-11-28T12:45:06.684Z,9.00
2022-11-28T12:47:34.654Z,8.98
2022-11-28T12:50:02.710Z,8.96
2022-11-28T12:52:32.499Z,8.95
2022-11-28T12:55:00.333Z,8.93
2022-11-28T12:57:28.459Z,8.88
2022-11-28T12:59:56.294Z,8.87
2022-11-28T13:02:24.427Z,8.85
2022-11-28T13:04:53.349Z,8.83
2022-11-28T13:07:21.276Z,8.82
2022-11-28T13:09:49.081Z,8.80
2022-11-28T13:12:17.215Z,8.78
2022-11-28T13:14:45.180Z,8.78
2022-11-28T13:17:15.147Z,8.76
2022-11-28T13:19:43.197Z,8.76
2022-11-28T13:22:11.095Z,8.77
2022-11-28T13:24:39.009Z,8.78
2022-11-28T13:27:07.446Z,8.77
2022-11-28T13:29:35.676Z,8.78
2022-11-28T13:32:03.542Z,8.79
2022-11-28T13:34:31.704Z,8.80
2022-11-28T13:39:49.903Z,8.78
2022-11-28T13:45:07.654Z,8.79
2022-11-28T13:47:35.968Z,8.79
2022-11-28T13:50:05.468Z,8.78
2022-11-28T13:52:34.220Z,8.76
2022-11-28T13:55:01.962Z,8.75
2022-11-28T13:57:29.851Z,8.75
2022-11-28T13:59:57.917Z,8.75
2022-11-28T14:02:26.892Z,8.73
2022-11-28T14:04:54.795Z,8.73
2022-11-28T14:07:22.908Z,8.73
2022-11-28T14:09:52.245Z,8.72
2022-11-28T14:12:20.230Z,8.73
2022-11-28T14:14:49.370Z,8.74
2022-11-28T14:17:17.135Z,8.73
2022-11-28T14:19:45.113Z,8.72
2022-11-28T14:22:13.117Z,8.72
2022-11-28T14:24:41.056Z,8.73
2022-11-28T14:27:10.151Z,8.71
2022-11-28T14:29:38.481Z,8.71
2022-11-28T14:32:28.987Z,8.71
2022-11-28T14:34:54.433Z,8.70
2022-11-28T14:37:22.831Z,8.67
2022-11-28T14:39:50.844Z,8.65
2022-11-28T14:42:44.086Z,8.63
2022-11-28T14:45:08.517Z,8.63
2022-11-28T14:47:43.256Z,8.62
2022-11-28T14:50:12.448Z,8.60
2022-11-28T14:52:40.915Z,8.60
2022-11-28T14:55:09.404Z,8.60
2022-11-28T14:57:37.810Z,8.57
2022-11-28T15:00:05.937Z,8.56
2022-11-28T15:02:34.199Z,8.54
2022-11-28T15:05:02.132Z,8.54
2022-11-28T15:07:30.071Z,8.52
2022-11-28T15:10:02.702Z,8.49
2022-11-28T15:12:33.943Z,8.48
2022-11-28T15:15:01.873Z,8.48
2022-11-28T15:17:31.011Z,8.48
2022-11-28T15:19:59.667Z,8.48
2022-11-28T15:22:27.793Z,8.47
2022-11-28T15:24:56.309Z,8.45
2022-11-28T15:27:24.242Z,8.45
2022-11-28T15:29:52.340Z,8.45
2022-11-28T15:32:23.426Z,8.46
2022-11-28T15:34:51.260Z,8.46
2022-11-28T15:37:19.837Z,8.46
2022-11-28T15:39:47.774Z,8.45
2022-11-28T15:42:15.771Z,8.46
2022-11-28T15:44:45.665Z,8.44
2022-11-28T15:47:13.645Z,8.44
2022-11-28T15:49:43.877Z,8.45
2022-11-28T15:52:11.782Z,8.45
2022-11-28T15:54:41.525Z,8.47
2022-11-28T15:57:09.655Z,8.47
2022-11-28T15:59:37.693Z,8.48
2022-11-28T16:02:05.487Z,8.48
2022-11-28T16:04:33.390Z,8.49
2022-11-28T16:07:01.570Z,8.49
2022-11-28T16:09:30.632Z,8.50
2022-11-28T16:11:58.569Z,8.49
2022-11-28T16:14:27.032Z,8.51
2022-11-28T16:16:55.336Z,8.50
2022-11-28T16:19:23.333Z,8.50
2022-11-28T16:21:52.280Z,8.51
2022-11-28T16:24:20.165Z,8.51
2022-11-28T16:26:48.617Z,8.52
2022-11-28T16:29:16.663Z,8.52
2022-11-28T16:31:44.637Z,8.50
2022-11-28T16:34:13.252Z,8.51
2022-11-28T16:36:41.368Z,8.50
2022-11-28T16:39:10.104Z,8.51
2022-11-28T16:41:38.131Z,8.51
2022-11-28T16:44:06.628Z,8.51
2022-11-28T16:46:36.048Z,8.51
2022-11-28T16:49:05.397Z,8.51
2022-11-28T16:51:34.172Z,8.50
2022-11-28T16:54:02.071Z,8.51
2022-11-28T16:56:30.072Z,8.51
2022-11-28T16:58:58.604Z,8.51
2022-11-28T17:01:26.817Z,8.52
2022-11-28T17:03:56.100Z,8.53
2022-11-28T17:06:23.950Z,8.52
2022-11-28T17:08:51.941Z,8.53
2022-11-28T17:11:21.277Z,8.53
2022-11-28T17:13:49.136Z,8.53
2022-11-28T17:16:17.807Z,8.54
2022-11-28T17:18:45.757Z,8.53
2022-11-28T17:21:13.650Z,8.53
2022-11-28T17:23:45.287Z,8.53
2022-11-28T17:26:13.124Z,8.53
2022-11-28T17:28:41.756Z,8.52
2022-11-28T17:31:09.709Z,8.51
2022-11-28T17:33:41.690Z,8.53
2022-11-28T17:36:12.596Z,8.54
2022-11-28T17:38:40.421Z,8.57
2022-11-28T17:41:10.338Z,8.58
2022-11-28T17:43:39.355Z,8.61
2022-11-28T17:46:07.444Z,8.63
2022-11-28T17:48:36.363Z,8.63
2022-11-28T17:51:04.673Z,8.64
2022-11-28T17:53:33.160Z,8.65
2022-11-28T17:56:01.021Z,8.64
2022-11-28T17:58:29.213Z,8.64
2022-11-28T18:01:00.590Z,8.63
2022-11-28T18:03:28.998Z,8.62
2022-11-28T18:05:57.519Z,8.60
2022-11-28T18:08:25.373Z,8.60
2022-11-28T18:10:53.238Z,8.58
2022-11-28T18:13:22.583Z,8.55
2022-11-28T18:15:50.384Z,8.54
2022-11-28T18:18:18.580Z,8.52
2022-11-28T18:20:46.639Z,8.51
2022-11-28T18:23:14.476Z,8.49
2022-11-28T18:25:43.541Z,8.48
2022-11-28T18:28:17.296Z,8.48
2022-11-28T18:30:47.098Z,8.48
2022-11-28T18:33:15.026Z,8.47
2022-11-28T18:35:47.162Z,8.47
2022-11-28T18:38:15.082Z,8.48
2022-11-28T18:40:42.891Z,8.49
2022-11-28T18:43:11.066Z,8.50
2022-11-28T18:45:39.099Z,8.52
2022-11-28T18:48:08.083Z,8.54
2022-11-28T18:50:35.899Z,8.55
2022-11-28T18:53:03.877Z,8.58
2022-11-28T18:55:32.051Z,8.58
2022-11-28T18:58:00.117Z,8.59
2022-11-28T19:00:28.092Z,8.60
2022-11-28T19:02:55.987Z,8.61
2022-11-28T19:05:23.938Z,8.61
2022-11-28T19:07:51.863Z,8.62
2022-11-28T19:10:20.549Z,8.63
2022-11-28T19:12:48.386Z,8.65
2022-11-28T19:15:16.388Z,8.67
2022-11-28T19:17:44.397Z,8.66
2022-11-28T19:20:12.846Z,8.67
2022-11-28T19:22:40.763Z,8.70
2022-11-28T19:25:08.677Z,8.69
2022-11-28T19:27:36.623Z,8.70
2022-11-28T19:30:04.623Z,8.71
2022-11-28T19:32:32.762Z,8.72
2022-11-28T19:35:00.638Z,8.73
2022-11-28T19:37:28.837Z,8.74
2022-11-28T19:40:02.172Z,8.76
2022-11-28T19:42:30.621Z,8.76
2022-11-28T19:44:59.065Z,8.77
2022-11-28T19:47:26.884Z,8.78
2022-11-28T19:49:54.986Z,8.81
2022-11-28T19:52:22.856Z,8.82
2022-11-28T19:54:51.188Z,8.83
2022-11-28T19:57:21.353Z,8.86
2022-11-28T19:59:49.186Z,8.85
2022-11-28T20:02:17.884Z,8.87
2022-11-28T20:04:45.927Z,8.89
2022-11-28T20:07:14.132Z,8.90
2022-11-28T20:09:43.052Z,8.91
2022-11-28T20:12:11.596Z,8.91
2022-11-28T20:14:39.470Z,8.91
2022-11-28T20:17:08.350Z,8.92
2022-11-28T20:19:36.232Z,8.92
2022-11-28T20:22:04.867Z,8.92
2022-11-28T20:24:32.886Z,8.90
2022-11-28T20:27:00.914Z,8.91
2022-11-28T20:29:28.839Z,8.91
2022-11-28T20:31:57.494Z,8.92
2022-11-28T20:34:26.434Z,8.93
2022-11-28T20:36:54.375Z,8.93
2022-11-28T20:39:22.449Z,8.92
2022-11-28T20:41:50.565Z,8.93
2022-11-28T20:44:19.114Z,8.92
2022-11-28T20:46:50.302Z,8.91
2022-11-28T20:49:18.284Z,8.89
2022-11-28T20:51:47.726Z,8.89
2022-11-28T20:54:15.577Z,8.89
2022-11-28T20:57:19.823Z,8.90
2022-11-28T20:59:33.353Z,8.91
2022-11-28T21:02:03.279Z,8.92
2022-11-28T21:04:31.157Z,8.92
2022-11-28T21:06:58.935Z,8.93
2022-11-28T21:09:26.991Z,8.93
2022-11-28T21:11:58.172Z,8.95
2022-11-28T21:14:27.871Z,8.94
2022-11-28T21:16:55.916Z,8.96
2022-11-28T21:19:23.893Z,8.95
2022-11-28T21:21:52.130Z,8.97
2022-11-28T21:24:20.439Z,8.98
2022-11-28T21:26:53.480Z,8.99
2022-11-28T21:29:22.562Z,9.01
2022-11-28T21:31:50.445Z,9.02
2022-11-28T21:34:19.726Z,9.03
2022-11-28T21:36:48.136Z,9.02
2022-11-28T21:39:17.071Z,9.03
2022-11-28T21:41:44.948Z,9.04
2022-11-28T21:44:12.816Z,9.05
2022-11-28T21:46:40.747Z,9.06
2022-11-28T21:49:09.235Z,9.07
2022-11-28T21:51:37.147Z,9.06
2022-11-28T21:54:04.879Z,9.07
2022-11-28T21:56:32.778Z,9.08
2022-11-28T21:59:00.775Z,9.07
2022-11-28T22:01:29.355Z,9.07
2022-11-28T22:04:02.665Z,9.09
2022-11-28T22:06:31.057Z,9.08
2022-11-28T22:08:59.431Z,9.09
2022-11-28T22:11:27.877Z,9.11
2022-11-28T22:13:56.168Z,9.11
2022-11-28T22:16:24.053Z,9.12
2022-11-28T22:18:52.000Z,9.13
2022-11-28T22:21:50.458Z,9.13
2022-11-28T22:24:08.359Z,9.13
2022-11-28T22:26:36.426Z,9.14
2022-11-28T22:29:04.747Z,9.15
2022-11-28T22:31:32.716Z,9.15
2022-11-28T22:34:00.740Z,9.14
2022-11-28T22:36:28.574Z,9.15
2022-11-28T22:38:57.461Z,9.14
2022-11-28T22:41:29.040Z,9.12
2022-11-28T22:43:57.521Z,9.12
2022-11-28T22:46:25.568Z,9.11
2022-11-28T22:48:53.825Z,9.11
2022-11-28T22:51:22.494Z,9.12
2022-11-28T22:53:50.340Z,9.12
2022-11-28T22:56:18.287Z,9.13
2022-11-28T22:58:46.129Z,9.14
2022-11-28T23:01:14.295Z,9.15
2022-11-28T23:03:42.159Z,9.16
2022-11-28T23:06:10.086Z,9.16
2022-11-28T23:08:38.197Z,9.15
2022-11-28T23:11:06.080Z,9.16
2022-11-28T23:13:34.166Z,9.16
2022-11-28T23:16:01.946Z,9.17
2022-11-28T23:18:29.727Z,9.18
2022-11-28T23:20:57.388Z,9.17
2022-11-28T23:23:25.109Z,9.18
2022-11-28T23:25:53.196Z,9.18
2022-11-28T23:28:21.903Z,9.19
2022-11-28T23:30:49.935Z,9.21
2022-11-28T23:33:17.684Z,9.23
2022-11-28T23:35:45.338Z,9.22
2022-11-28T23:38:13.030Z,9.24
2022-11-28T23:40:42.074Z,9.25
2022-11-28T23:43:09.742Z,9.26
2022-11-28T23:45:37.639Z,9.25
2022-11-28T23:48:05.462Z,9.25
2022-11-28T23:50:33.445Z,9.25
2022-11-28T23:53:04.381Z,9.26
2022-11-28T23:55:32.176Z,9.25
2022-11-28T23:57:59.794Z,9.25
